sensor_id;sensor_type;location;lat;lon;timestamp;P1;durP1;ratioP1;P2;durP2;ratioP2
12792;SDS011;6460;42.684;23.260;2023-02-13T00:37:25;54.23;;;30.13;;
12792;SDS011;6460;42.684;23.260;2023-02-13T00:39:52;53.53;;;32.63;;
12792;SDS011;6460;42.684;23.260;2023-02-13T00:55:06;50.87;;;29.97;;
12792;SDS011;6460;42.684;23.260;2023-02-13T00:57:33;55.90;;;33.00;;
12792;SDS011;6460;42.684;23.260;2023-02-13T01:00:01;57.53;;;33.17;;
12792;SDS011;6460;42.684;23.260;2023-02-13T01:02:28;57.70;;;33.07;;
12792;SDS011;6460;42.684;23.260;2023-02-13T01:04:55;56.17;;;32.30;;
12792;SDS011;6460;42.684;23.260;2023-02-13T01:07:23;55.97;;;32.47;;
12792;SDS011;6460;42.684;23.260;2023-02-13T01:09:50;57.67;;;32.27;;
12792;SDS011;6460;42.684;23.260;2023-02-13T01:12:18;56.60;;;31.27;;
12792;SDS011;6460;42.684;23.260;2023-02-13T01:14:45;62.60;;;32.63;;
12792;SDS011;6460;42.684;23.260;2023-02-13T01:17:12;64.33;;;33.80;;
12792;SDS011;6460;42.684;23.260;2023-02-13T01:19:40;56.33;;;32.10;;
12792;SDS011;6460;42.684;23.260;2023-02-13T01:22:07;55.37;;;31.47;;
12792;SDS011;6460;42.684;23.260;2023-02-13T01:24:34;60.63;;;33.17;;
12792;SDS011;6460;42.684;23.260;2023-02-13T01:27:02;60.53;;;32.50;;
12792;SDS011;6460;42.684;23.260;2023-02-13T01:29:31;58.93;;;33.10;;
12792;SDS011;6460;42.684;23.260;2023-02-13T01:31:58;59.50;;;31.13;;
12792;SDS011;6460;42.684;23.260;2023-02-13T01:34:26;57.33;;;32.50;;
12792;SDS011;6460;42.684;23.260;2023-02-13T01:36:53;59.50;;;31.53;;
12792;SDS011;6460;42.684;23.260;2023-02-13T01:39:21;58.53;;;32.60;;
12792;SDS011;6460;42.684;23.260;2023-02-13T01:41:48;64.10;;;34.90;;
12792;SDS011;6460;42.684;23.260;2023-02-13T01:47:21;62.57;;;32.70;;
12792;SDS011;6460;42.684;23.260;2023-02-13T01:49:53;60.17;;;33.90;;
12792;SDS011;6460;42.684;23.260;2023-02-13T01:52:27;61.37;;;33.93;;
12792;SDS011;6460;42.684;23.260;2023-02-13T01:54:55;60.20;;;32.23;;
12792;SDS011;6460;42.684;23.260;2023-02-13T01:57:23;63.73;;;34.87;;
12792;SDS011;6460;42.684;23.260;2023-02-13T01:59:56;62.77;;;33.77;;
12792;SDS011;6460;42.684;23.260;2023-02-13T02:02:25;63.77;;;34.67;;
12792;SDS011;6460;42.684;23.260;2023-02-13T02:04:54;65.43;;;34.30;;
12792;SDS011;6460;42.684;23.260;2023-02-13T02:07:22;67.37;;;35.73;;
12792;SDS011;6460;42.684;23.260;2023-02-13T02:09:52;60.00;;;34.00;;
12792;SDS011;6460;42.684;23.260;2023-02-13T02:12:23;60.80;;;34.00;;
12792;SDS011;6460;42.684;23.260;2023-02-13T02:14:57;65.00;;;34.50;;
12792;SDS011;6460;42.684;23.260;2023-02-13T02:17:25;66.43;;;35.57;;
12792;SDS011;6460;42.684;23.260;2023-02-13T02:19:55;65.53;;;35.97;;
12792;SDS011;6460;42.684;23.260;2023-02-13T02:25:59;64.53;;;34.07;;
12792;SDS011;6460;42.684;23.260;2023-02-13T02:28:46;62.40;;;33.47;;
12792;SDS011;6460;42.684;23.260;2023-02-13T02:31:43;61.47;;;35.23;;
12792;SDS011;6460;42.684;23.260;2023-02-13T02:34:28;63.07;;;31.37;;
12792;SDS011;6460;42.684;23.260;2023-02-13T02:37:08;60.93;;;34.03;;
12792;SDS011;6460;42.684;23.260;2023-02-13T02:39:45;60.60;;;32.47;;
12792;SDS011;6460;42.684;23.260;2023-02-13T02:42:24;56.37;;;31.53;;
12792;SDS011;6460;42.684;23.260;2023-02-13T02:44:59;58.90;;;32.67;;
12792;SDS011;6460;42.684;23.260;2023-02-13T02:47:37;53.73;;;30.53;;
12792;SDS011;6460;42.684;23.260;2023-02-13T02:50:32;57.93;;;33.23;;
12792;SDS011;6460;42.684;23.260;2023-02-13T02:53:06;59.97;;;33.60;;
12792;SDS011;6460;42.684;23.260;2023-02-13T02:55:45;61.77;;;33.00;;
12792;SDS011;6460;42.684;23.260;2023-02-13T02:58:17;60.93;;;32.73;;
12792;SDS011;6460;42.684;23.260;2023-02-13T03:01:17;53.53;;;30.57;;
12792;SDS011;6460;42.684;23.260;2023-02-13T03:04:08;59.40;;;32.50;;
12792;SDS011;6460;42.684;23.260;2023-02-13T03:07:00;57.33;;;31.73;;
12792;SDS011;6460;42.684;23.260;2023-02-13T03:09:34;57.47;;;32.17;;
12792;SDS011;6460;42.684;23.260;2023-02-13T03:12:23;55.80;;;32.53;;
12792;SDS011;6460;42.684;23.260;2023-02-13T03:15:12;57.70;;;32.73;;
12792;SDS011;6460;42.684;23.260;2023-02-13T03:17:39;56.97;;;32.00;;
12792;SDS011;6460;42.684;23.260;2023-02-13T03:20:29;55.10;;;30.83;;
12792;SDS011;6460;42.684;23.260;2023-02-13T03:23:40;58.80;;;31.50;;
12792;SDS011;6460;42.684;23.260;2023-02-13T03:26:22;51.57;;;28.43;;
12792;SDS011;6460;42.684;23.260;2023-02-13T03:29:11;53.50;;;29.80;;
12792;SDS011;6460;42.684;23.260;2023-02-13T03:32:17;59.97;;;31.57;;
12792;SDS011;6460;42.684;23.260;2023-02-13T03:34:51;61.03;;;32.80;;
12792;SDS011;6460;42.684;23.260;2023-02-13T03:37:46;56.43;;;31.40;;
12792;SDS011;6460;42.684;23.260;2023-02-13T03:40:22;54.07;;;31.07;;
12792;SDS011;6460;42.684;23.260;2023-02-13T03:42:55;54.73;;;31.17;;
12792;SDS011;6460;42.684;23.260;2023-02-13T03:45:30;59.93;;;32.50;;
12792;SDS011;6460;42.684;23.260;2023-02-13T03:48:18;58.30;;;30.97;;
12792;SDS011;6460;42.684;23.260;2023-02-13T03:51:06;59.20;;;31.03;;
12792;SDS011;6460;42.684;23.260;2023-02-13T03:53:37;56.80;;;31.93;;
12792;SDS011;6460;42.684;23.260;2023-02-13T03:56:07;55.40;;;31.23;;
12792;SDS011;6460;42.684;23.260;2023-02-13T03:58:53;58.50;;;32.67;;
12792;SDS011;6460;42.684;23.260;2023-02-13T04:01:42;57.47;;;32.57;;
12792;SDS011;6460;42.684;23.260;2023-02-13T04:04:13;57.77;;;31.20;;
12792;SDS011;6460;42.684;23.260;2023-02-13T04:06:48;60.60;;;31.80;;
12792;SDS011;6460;42.684;23.260;2023-02-13T04:09:19;57.90;;;30.70;;
12792;SDS011;6460;42.684;23.260;2023-02-13T04:11:48;55.67;;;31.53;;
12792;SDS011;6460;42.684;23.260;2023-02-13T04:14:24;57.03;;;31.53;;
12792;SDS011;6460;42.684;23.260;2023-02-13T04:16:55;58.27;;;31.90;;
12792;SDS011;6460;42.684;23.260;2023-02-13T04:19:28;56.70;;;30.07;;
12792;SDS011;6460;42.684;23.260;2023-02-13T04:21:58;51.43;;;28.40;;
12792;SDS011;6460;42.684;23.260;2023-02-13T04:24:28;56.00;;;29.30;;
12792;SDS011;6460;42.684;23.260;2023-02-13T04:26:56;62.40;;;31.87;;
12792;SDS011;6460;42.684;23.260;2023-02-13T04:29:24;60.43;;;32.23;;
12792;SDS011;6460;42.684;23.260;2023-02-13T04:31:52;57.47;;;32.63;;
12792;SDS011;6460;42.684;23.260;2023-02-13T04:34:20;69.03;;;35.20;;
12792;SDS011;6460;42.684;23.260;2023-02-13T04:36:47;61.07;;;32.70;;
12792;SDS011;6460;42.684;23.260;2023-02-13T04:39:14;59.73;;;33.77;;
12792;SDS011;6460;42.684;23.260;2023-02-13T04:41:43;66.30;;;35.80;;
12792;SDS011;6460;42.684;23.260;2023-02-13T04:44:10;60.27;;;33.70;;
12792;SDS011;6460;42.684;23.260;2023-02-13T04:46:37;61.13;;;34.27;;
12792;SDS011;6460;42.684;23.260;2023-02-13T04:49:04;67.63;;;35.63;;
12792;SDS011;6460;42.684;23.260;2023-02-13T04:51:31;65.87;;;34.70;;
12792;SDS011;6460;42.684;23.260;2023-02-13T04:53:59;58.83;;;35.33;;
12792;SDS011;6460;42.684;23.260;2023-02-13T04:56:26;55.53;;;33.67;;
12792;SDS011;6460;42.684;23.260;2023-02-13T04:58:54;57.67;;;32.67;;
12792;SDS011;6460;42.684;23.260;2023-02-13T05:01:22;56.30;;;33.23;;
12792;SDS011;6460;42.684;23.260;2023-02-13T05:03:49;55.83;;;32.83;;
12792;SDS011;6460;42.684;23.260;2023-02-13T05:06:16;57.57;;;33.80;;
12792;SDS011;6460;42.684;23.260;2023-02-13T05:08:43;65.67;;;35.07;;
12792;SDS011;6460;42.684;23.260;2023-02-13T05:11:10;58.77;;;34.80;;
12792;SDS011;6460;42.684;23.260;2023-02-13T05:13:37;61.23;;;34.90;;
12792;SDS011;6460;42.684;23.260;2023-02-13T05:16:06;59.93;;;34.80;;
12792;SDS011;6460;42.684;23.260;2023-02-13T05:18:33;55.80;;;33.67;;
12792;SDS011;6460;42.684;23.260;2023-02-13T05:21:00;58.50;;;34.73;;
12792;SDS011;6460;42.684;23.260;2023-02-13T05:23:44;64.53;;;35.93;;
12792;SDS011;6460;42.684;23.260;2023-02-13T05:26:11;56.30;;;33.93;;
12792;SDS011;6460;42.684;23.260;2023-02-13T05:28:39;57.73;;;33.97;;
12792;SDS011;6460;42.684;23.260;2023-02-13T05:31:24;58.50;;;34.17;;
12792;SDS011;6460;42.684;23.260;2023-02-13T05:33:51;58.70;;;34.03;;
12792;SDS011;6460;42.684;23.260;2023-02-13T05:36:19;54.87;;;33.30;;
12792;SDS011;6460;42.684;23.260;2023-02-13T05:38:45;61.23;;;32.73;;
12792;SDS011;6460;42.684;23.260;2023-02-13T05:41:12;56.33;;;31.43;;
12792;SDS011;6460;42.684;23.260;2023-02-13T05:43:39;55.80;;;31.90;;
12792;SDS011;6460;42.684;23.260;2023-02-13T05:46:07;54.17;;;30.87;;
12792;SDS011;6460;42.684;23.260;2023-02-13T05:48:36;50.13;;;31.20;;
12792;SDS011;6460;42.684;23.260;2023-02-13T05:51:04;56.73;;;32.80;;
12792;SDS011;6460;42.684;23.260;2023-02-13T05:53:31;52.10;;;30.60;;
12792;SDS011;6460;42.684;23.260;2023-02-13T05:55:59;53.47;;;31.90;;
12792;SDS011;6460;42.684;23.260;2023-02-13T05:58:27;55.27;;;32.60;;
12792;SDS011;6460;42.684;23.260;2023-02-13T06:00:55;57.33;;;32.27;;
12792;SDS011;6460;42.684;23.260;2023-02-13T06:03:23;54.03;;;30.53;;
12792;SDS011;6460;42.684;23.260;2023-02-13T06:05:51;56.47;;;31.60;;
12792;SDS011;6460;42.684;23.260;2023-02-13T06:08:19;53.67;;;32.03;;
12792;SDS011;6460;42.684;23.260;2023-02-13T06:10:46;56.17;;;32.70;;
12792;SDS011;6460;42.684;23.260;2023-02-13T06:13:14;57.70;;;33.13;;
12792;SDS011;6460;42.684;23.260;2023-02-13T06:15:41;56.97;;;32.50;;
12792;SDS011;6460;42.684;23.260;2023-02-13T06:18:09;53.07;;;33.37;;
12792;SDS011;6460;42.684;23.260;2023-02-13T06:20:36;63.03;;;34.83;;
12792;SDS011;6460;42.684;23.260;2023-02-13T06:23:05;56.67;;;34.07;;
12792;SDS011;6460;42.684;23.260;2023-02-13T06:25:33;61.50;;;35.97;;
12792;SDS011;6460;42.684;23.260;2023-02-13T06:28:00;59.13;;;34.33;;
12792;SDS011;6460;42.684;23.260;2023-02-13T06:30:27;50.63;;;28.60;;
12792;SDS011;6460;42.684;23.260;2023-02-13T06:32:55;49.30;;;29.20;;
12792;SDS011;6460;42.684;23.260;2023-02-13T06:35:22;50.93;;;31.33;;
12792;SDS011;6460;42.684;23.260;2023-02-13T06:37:49;52.47;;;31.33;;
12792;SDS011;6460;42.684;23.260;2023-02-13T06:40:18;54.40;;;31.27;;
12792;SDS011;6460;42.684;23.260;2023-02-13T06:42:46;49.93;;;31.00;;
12792;SDS011;6460;42.684;23.260;2023-02-13T06:45:13;52.07;;;31.97;;
12792;SDS011;6460;42.684;23.260;2023-02-13T06:47:41;58.47;;;31.90;;
12792;SDS011;6460;42.684;23.260;2023-02-13T06:50:09;53.87;;;32.97;;
12792;SDS011;6460;42.684;23.260;2023-02-13T06:52:37;60.20;;;33.93;;
12792;SDS011;6460;42.684;23.260;2023-02-13T06:55:04;62.03;;;34.20;;
12792;SDS011;6460;42.684;23.260;2023-02-13T06:57:33;54.43;;;33.67;;
12792;SDS011;6460;42.684;23.260;2023-02-13T06:59:59;60.33;;;35.47;;
12792;SDS011;6460;42.684;23.260;2023-02-13T07:02:30;52.60;;;33.00;;
12792;SDS011;6460;42.684;23.260;2023-02-13T07:04:57;60.87;;;33.13;;
12792;SDS011;6460;42.684;23.260;2023-02-13T07:07:24;52.40;;;30.33;;
12792;SDS011;6460;42.684;23.260;2023-02-13T07:09:51;60.33;;;34.57;;
12792;SDS011;6460;42.684;23.260;2023-02-13T07:12:18;48.63;;;28.07;;
12792;SDS011;6460;42.684;23.260;2023-02-13T07:14:47;46.33;;;26.73;;
12792;SDS011;6460;42.684;23.260;2023-02-13T07:17:14;52.67;;;31.20;;
12792;SDS011;6460;42.684;23.260;2023-02-13T07:19:41;48.17;;;27.83;;
12792;SDS011;6460;42.684;23.260;2023-02-13T07:22:09;45.40;;;25.47;;
12792;SDS011;6460;42.684;23.260;2023-02-13T07:24:36;53.87;;;32.13;;
12792;SDS011;6460;42.684;23.260;2023-02-13T07:27:04;56.90;;;31.73;;
12792;SDS011;6460;42.684;23.260;2023-02-13T07:29:33;59.03;;;33.80;;
12792;SDS011;6460;42.684;23.260;2023-02-13T07:32:02;55.63;;;31.07;;
12792;SDS011;6460;42.684;23.260;2023-02-13T07:34:31;49.97;;;28.20;;
12792;SDS011;6460;42.684;23.260;2023-02-13T07:36:58;49.13;;;28.53;;
12792;SDS011;6460;42.684;23.260;2023-02-13T07:39:25;47.10;;;27.80;;
12792;SDS011;6460;42.684;23.260;2023-02-13T07:41:52;51.60;;;30.30;;
12792;SDS011;6460;42.684;23.260;2023-02-13T07:44:19;48.70;;;28.80;;
12792;SDS011;6460;42.684;23.260;2023-02-13T07:46:46;47.27;;;27.77;;
12792;SDS011;6460;42.684;23.260;2023-02-13T07:49:15;45.47;;;27.60;;
12792;SDS011;6460;42.684;23.260;2023-02-13T07:51:42;52.27;;;29.43;;
12792;SDS011;6460;42.684;23.260;2023-02-13T07:54:09;54.23;;;30.30;;
12792;SDS011;6460;42.684;23.260;2023-02-13T07:56:36;44.50;;;26.17;;
12792;SDS011;6460;42.684;23.260;2023-02-13T07:59:03;50.30;;;28.80;;
12792;SDS011;6460;42.684;23.260;2023-02-13T08:01:31;55.97;;;29.53;;
12792;SDS011;6460;42.684;23.260;2023-02-13T08:03:58;52.37;;;29.13;;
12792;SDS011;6460;42.684;23.260;2023-02-13T08:06:26;49.73;;;29.23;;
12792;SDS011;6460;42.684;23.260;2023-02-13T08:08:53;46.43;;;27.17;;
12792;SDS011;6460;42.684;23.260;2023-02-13T08:11:34;47.27;;;28.17;;
12792;SDS011;6460;42.684;23.260;2023-02-13T08:14:19;51.17;;;28.70;;
12792;SDS011;6460;42.684;23.260;2023-02-13T08:16:47;47.73;;;26.77;;
12792;SDS011;6460;42.684;23.260;2023-02-13T08:19:14;52.10;;;29.27;;
12792;SDS011;6460;42.684;23.260;2023-02-13T08:21:42;50.63;;;29.30;;
12792;SDS011;6460;42.684;23.260;2023-02-13T08:24:10;46.67;;;27.93;;
12792;SDS011;6460;42.684;23.260;2023-02-13T08:26:37;52.53;;;28.57;;
12792;SDS011;6460;42.684;23.260;2023-02-13T08:29:05;48.87;;;28.20;;
12792;SDS011;6460;42.684;23.260;2023-02-13T08:31:33;55.00;;;29.73;;
12792;SDS011;6460;42.684;23.260;2023-02-13T08:34:00;49.97;;;29.17;;
12792;SDS011;6460;42.684;23.260;2023-02-13T08:36:27;51.47;;;29.00;;
12792;SDS011;6460;42.684;23.260;2023-02-13T08:38:55;50.90;;;28.70;;
12792;SDS011;6460;42.684;23.260;2023-02-13T08:41:23;51.83;;;29.07;;
12792;SDS011;6460;42.684;23.260;2023-02-13T08:43:50;50.10;;;29.60;;
12792;SDS011;6460;42.684;23.260;2023-02-13T08:46:19;50.77;;;30.50;;
12792;SDS011;6460;42.684;23.260;2023-02-13T08:48:46;55.83;;;31.37;;
12792;SDS011;6460;42.684;23.260;2023-02-13T08:51:13;56.87;;;31.87;;
12792;SDS011;6460;42.684;23.260;2023-02-13T08:53:40;54.70;;;30.90;;
12792;SDS011;6460;42.684;23.260;2023-02-13T08:56:09;51.07;;;30.87;;
12792;SDS011;6460;42.684;23.260;2023-02-13T08:58:37;52.70;;;30.37;;
12792;SDS011;6460;42.684;23.260;2023-02-13T09:01:05;51.30;;;29.57;;
12792;SDS011;6460;42.684;23.260;2023-02-13T09:03:33;47.67;;;29.77;;
12792;SDS011;6460;42.684;23.260;2023-02-13T09:06:00;49.47;;;30.37;;
12792;SDS011;6460;42.684;23.260;2023-02-13T09:08:28;53.27;;;31.07;;
12792;SDS011;6460;42.684;23.260;2023-02-13T09:10:55;50.10;;;29.13;;
12792;SDS011;6460;42.684;23.260;2023-02-13T09:13:25;52.50;;;31.03;;
12792;SDS011;6460;42.684;23.260;2023-02-13T09:15:53;56.97;;;34.00;;
12792;SDS011;6460;42.684;23.260;2023-02-13T09:18:20;54.93;;;29.23;;
12792;SDS011;6460;42.684;23.260;2023-02-13T09:20:47;51.73;;;30.53;;
12792;SDS011;6460;42.684;23.260;2023-02-13T09:23:14;56.30;;;31.90;;
12792;SDS011;6460;42.684;23.260;2023-02-13T09:25:41;59.53;;;33.43;;
12792;SDS011;6460;42.684;23.260;2023-02-13T09:28:08;53.20;;;30.87;;
12792;SDS011;6460;42.684;23.260;2023-02-13T09:30:37;52.83;;;31.30;;
12792;SDS011;6460;42.684;23.260;2023-02-13T09:33:04;52.60;;;31.60;;
12792;SDS011;6460;42.684;23.260;2023-02-13T09:35:36;55.13;;;32.17;;
12792;SDS011;6460;42.684;23.260;2023-02-13T09:38:05;61.10;;;33.57;;
12792;SDS011;6460;42.684;23.260;2023-02-13T09:40:34;52.80;;;30.60;;
12792;SDS011;6460;42.684;23.260;2023-02-13T09:43:06;45.50;;;28.37;;
12792;SDS011;6460;42.684;23.260;2023-02-13T09:45:40;51.70;;;29.57;;
12792;SDS011;6460;42.684;23.260;2023-02-13T09:48:09;49.57;;;28.67;;
12792;SDS011;6460;42.684;23.260;2023-02-13T09:50:44;48.90;;;28.07;;
12792;SDS011;6460;42.684;23.260;2023-02-13T09:53:15;46.77;;;28.00;;
12792;SDS011;6460;42.684;23.260;2023-02-13T09:55:48;44.10;;;28.10;;
12792;SDS011;6460;42.684;23.260;2023-02-13T09:58:27;45.67;;;27.97;;
12792;SDS011;6460;42.684;23.260;2023-02-13T10:01:14;51.33;;;29.63;;
12792;SDS011;6460;42.684;23.260;2023-02-13T10:03:46;44.27;;;26.90;;
12792;SDS011;6460;42.684;23.260;2023-02-13T10:06:25;49.47;;;28.97;;
12792;SDS011;6460;42.684;23.260;2023-02-13T10:09:03;52.23;;;29.63;;
12792;SDS011;6460;42.684;23.260;2023-02-13T10:11:38;50.83;;;29.27;;
12792;SDS011;6460;42.684;23.260;2023-02-13T10:14:16;47.30;;;29.57;;
12792;SDS011;6460;42.684;23.260;2023-02-13T10:16:48;49.33;;;29.03;;
12792;SDS011;6460;42.684;23.260;2023-02-13T10:19:25;42.03;;;25.70;;
12792;SDS011;6460;42.684;23.260;2023-02-13T10:22:00;45.90;;;29.63;;
12792;SDS011;6460;42.684;23.260;2023-02-13T10:24:33;42.60;;;23.87;;
12792;SDS011;6460;42.684;23.260;2023-02-13T10:27:15;47.63;;;26.90;;
12792;SDS011;6460;42.684;23.260;2023-02-13T10:29:46;44.40;;;25.80;;
12792;SDS011;6460;42.684;23.260;2023-02-13T10:32:40;47.63;;;27.77;;
12792;SDS011;6460;42.684;23.260;2023-02-13T10:35:19;44.10;;;26.67;;
12792;SDS011;6460;42.684;23.260;2023-02-13T10:37:50;45.10;;;25.90;;
12792;SDS011;6460;42.684;23.260;2023-02-13T10:40:20;42.90;;;25.90;;
12792;SDS011;6460;42.684;23.260;2023-02-13T10:42:52;39.60;;;25.17;;
12792;SDS011;6460;42.684;23.260;2023-02-13T10:45:40;44.70;;;26.10;;
12792;SDS011;6460;42.684;23.260;2023-02-13T10:48:22;38.87;;;23.57;;
12792;SDS011;6460;42.684;23.260;2023-02-13T10:51:06;41.40;;;26.47;;
12792;SDS011;6460;42.684;23.260;2023-02-13T10:53:47;41.27;;;25.57;;
12792;SDS011;6460;42.684;23.260;2023-02-13T10:56:24;35.73;;;23.97;;
12792;SDS011;6460;42.684;23.260;2023-02-13T11:01:51;36.23;;;22.80;;
12792;SDS011;6460;42.684;23.260;2023-02-13T11:04:23;35.47;;;21.60;;
12792;SDS011;6460;42.684;23.260;2023-02-13T11:06:53;35.13;;;20.83;;
12792;SDS011;6460;42.684;23.260;2023-02-13T11:09:23;32.77;;;21.33;;
12792;SDS011;6460;42.684;23.260;2023-02-13T11:11:50;36.07;;;21.80;;
12792;SDS011;6460;42.684;23.260;2023-02-13T11:14:19;34.30;;;21.60;;
12792;SDS011;6460;42.684;23.260;2023-02-13T11:16:54;34.60;;;22.03;;
12792;SDS011;6460;42.684;23.260;2023-02-13T11:19:30;34.03;;;22.43;;
12792;SDS011;6460;42.684;23.260;2023-02-13T11:22:01;33.57;;;22.27;;
12792;SDS011;6460;42.684;23.260;2023-02-13T11:24:30;34.93;;;21.57;;
12792;SDS011;6460;42.684;23.260;2023-02-13T11:26:59;32.37;;;20.97;;
12792;SDS011;6460;42.684;23.260;2023-02-13T11:29:33;32.80;;;21.67;;
12792;SDS011;6460;42.684;23.260;2023-02-13T11:32:06;32.87;;;20.73;;
12792;SDS011;6460;42.684;23.260;2023-02-13T11:34:46;29.93;;;20.00;;
12792;SDS011;6460;42.684;23.260;2023-02-13T11:37:25;32.07;;;20.97;;
12792;SDS011;6460;42.684;23.260;2023-02-13T11:39:54;28.33;;;18.93;;
12792;SDS011;6460;42.684;23.260;2023-02-13T11:42:26;31.33;;;20.10;;
12792;SDS011;6460;42.684;23.260;2023-02-13T11:44:57;29.30;;;19.73;;
12792;SDS011;6460;42.684;23.260;2023-02-13T11:47:37;25.73;;;16.07;;
12792;SDS011;6460;42.684;23.260;2023-02-13T11:50:18;22.50;;;16.37;;
12792;SDS011;6460;42.684;23.260;2023-02-13T11:52:52;24.47;;;16.23;;
12792;SDS011;6460;42.684;23.260;2023-02-13T11:55:27;26.90;;;16.73;;
12792;SDS011;6460;42.684;23.260;2023-02-13T11:57:57;26.57;;;17.90;;
12792;SDS011;6460;42.684;23.260;2023-02-13T12:00:28;25.57;;;16.97;;
12792;SDS011;6460;42.684;23.260;2023-02-13T12:03:02;24.33;;;16.47;;
12792;SDS011;6460;42.684;23.260;2023-02-13T12:06:00;26.07;;;17.00;;
12792;SDS011;6460;42.684;23.260;2023-02-13T12:08:29;23.10;;;15.83;;
12792;SDS011;6460;42.684;23.260;2023-02-13T12:10:58;25.87;;;16.97;;
12792;SDS011;6460;42.684;23.260;2023-02-13T12:13:29;25.63;;;17.07;;
12792;SDS011;6460;42.684;23.260;2023-02-13T12:15:59;25.50;;;16.47;;
12792;SDS011;6460;42.684;23.260;2023-02-13T12:18:29;20.97;;;14.83;;
12792;SDS011;6460;42.684;23.260;2023-02-13T12:21:03;22.77;;;15.83;;
12792;SDS011;6460;42.684;23.260;2023-02-13T12:23:54;22.20;;;14.80;;
12792;SDS011;6460;42.684;23.260;2023-02-13T12:26:28;21.37;;;13.27;;
12792;SDS011;6460;42.684;23.260;2023-02-13T12:29:12;21.80;;;13.90;;
12792;SDS011;6460;42.684;23.260;2023-02-13T12:32:03;21.83;;;14.03;;
12792;SDS011;6460;42.684;23.260;2023-02-13T12:34:48;28.23;;;19.87;;
12792;SDS011;6460;42.684;23.260;2023-02-13T12:37:54;22.40;;;15.93;;
12792;SDS011;6460;42.684;23.260;2023-02-13T12:40:29;25.57;;;15.33;;
12792;SDS011;6460;42.684;23.260;2023-02-13T12:43:17;20.17;;;14.33;;
12792;SDS011;6460;42.684;23.260;2023-02-13T12:46:07;22.03;;;14.83;;
12792;SDS011;6460;42.684;23.260;2023-02-13T12:48:43;21.10;;;13.80;;
12792;SDS011;6460;42.684;23.260;2023-02-13T12:51:20;20.43;;;13.80;;
12792;SDS011;6460;42.684;23.260;2023-02-13T12:54:06;20.00;;;13.00;;
12792;SDS011;6460;42.684;23.260;2023-02-13T12:56:51;22.10;;;13.30;;
12792;SDS011;6460;42.684;23.260;2023-02-13T12:59:30;19.33;;;12.93;;
12792;SDS011;6460;42.684;23.260;2023-02-13T13:05:21;19.10;;;12.17;;
12792;SDS011;6460;42.684;23.260;2023-02-13T13:07:59;20.50;;;13.23;;
12792;SDS011;6460;42.684;23.260;2023-02-13T13:10:53;20.87;;;13.70;;
12792;SDS011;6460;42.684;23.260;2023-02-13T13:13:45;17.87;;;13.43;;
12792;SDS011;6460;42.684;23.260;2023-02-13T13:16:25;18.50;;;13.53;;
12792;SDS011;6460;42.684;23.260;2023-02-13T13:19:04;19.50;;;13.50;;
12792;SDS011;6460;42.684;23.260;2023-02-13T13:21:40;20.23;;;13.47;;
12792;SDS011;6460;42.684;23.260;2023-02-13T13:24:20;19.40;;;13.57;;
12792;SDS011;6460;42.684;23.260;2023-02-13T13:26:57;18.80;;;13.47;;
12792;SDS011;6460;42.684;23.260;2023-02-13T13:29:26;17.60;;;12.93;;
12792;SDS011;6460;42.684;23.260;2023-02-13T13:31:58;19.90;;;13.30;;
12792;SDS011;6460;42.684;23.260;2023-02-13T13:34:27;19.67;;;13.93;;
12792;SDS011;6460;42.684;23.260;2023-02-13T13:36:57;18.23;;;13.33;;
12792;SDS011;6460;42.684;23.260;2023-02-13T13:39:32;20.37;;;14.03;;
12792;SDS011;6460;42.684;23.260;2023-02-13T13:42:12;21.43;;;14.93;;
12792;SDS011;6460;42.684;23.260;2023-02-13T13:44:48;19.13;;;12.90;;
12792;SDS011;6460;42.684;23.260;2023-02-13T13:47:38;18.93;;;13.60;;
12792;SDS011;6460;42.684;23.260;2023-02-13T13:50:16;18.70;;;12.80;;
12792;SDS011;6460;42.684;23.260;2023-02-13T13:53:07;21.03;;;13.17;;
12792;SDS011;6460;42.684;23.260;2023-02-13T13:55:57;20.00;;;13.87;;
12792;SDS011;6460;42.684;23.260;2023-02-13T13:58:32;19.33;;;13.13;;
12792;SDS011;6460;42.684;23.260;2023-02-13T14:01:16;18.53;;;12.77;;
12792;SDS011;6460;42.684;23.260;2023-02-13T14:03:44;18.30;;;13.00;;
12792;SDS011;6460;42.684;23.260;2023-02-13T14:06:13;19.10;;;13.47;;
12792;SDS011;6460;42.684;23.260;2023-02-13T14:20:20;19.53;;;13.33;;
12792;SDS011;6460;42.684;23.260;2023-02-13T14:23:16;19.90;;;13.73;;
12792;SDS011;6460;42.684;23.260;2023-02-13T14:28:53;19.27;;;12.37;;
12792;SDS011;6460;42.684;23.260;2023-02-13T14:31:24;17.23;;;11.87;;
12792;SDS011;6460;42.684;23.260;2023-02-13T14:33:55;17.23;;;11.97;;
12792;SDS011;6460;42.684;23.260;2023-02-13T14:36:25;25.10;;;13.93;;
12792;SDS011;6460;42.684;23.260;2023-02-13T14:38:59;16.20;;;12.30;;
12792;SDS011;6460;42.684;23.260;2023-02-13T14:41:40;18.67;;;12.70;;
12792;SDS011;6460;42.684;23.260;2023-02-13T14:44:10;17.47;;;12.87;;
12792;SDS011;6460;42.684;23.260;2023-02-13T14:46:44;18.90;;;12.70;;
12792;SDS011;6460;42.684;23.260;2023-02-13T14:49:16;22.47;;;13.30;;
12792;SDS011;6460;42.684;23.260;2023-02-13T14:51:48;16.93;;;12.50;;
12792;SDS011;6460;42.684;23.260;2023-02-13T14:54:18;19.23;;;12.90;;
12792;SDS011;6460;42.684;23.260;2023-02-13T14:56:57;22.93;;;12.77;;
12792;SDS011;6460;42.684;23.260;2023-02-13T14:59:30;18.50;;;13.00;;
12792;SDS011;6460;42.684;23.260;2023-02-13T15:02:04;18.50;;;13.17;;
12792;SDS011;6460;42.684;23.260;2023-02-13T15:04:42;16.73;;;12.30;;
12792;SDS011;6460;42.684;23.260;2023-02-13T15:07:13;15.07;;;10.93;;
12792;SDS011;6460;42.684;23.260;2023-02-13T15:09:44;16.43;;;11.90;;
12792;SDS011;6460;42.684;23.260;2023-02-13T15:12:25;15.37;;;12.10;;
12792;SDS011;6460;42.684;23.260;2023-02-13T15:14:53;18.50;;;12.53;;
12792;SDS011;6460;42.684;23.260;2023-02-13T15:17:21;18.37;;;11.93;;
12792;SDS011;6460;42.684;23.260;2023-02-13T15:19:51;23.37;;;15.23;;
12792;SDS011;6460;42.684;23.260;2023-02-13T15:22:19;19.63;;;12.67;;
12792;SDS011;6460;42.684;23.260;2023-02-13T15:24:52;18.70;;;13.27;;
12792;SDS011;6460;42.684;23.260;2023-02-13T15:27:20;18.97;;;12.77;;
12792;SDS011;6460;42.684;23.260;2023-02-13T15:29:58;17.23;;;12.20;;
12792;SDS011;6460;42.684;23.260;2023-02-13T15:32:31;20.30;;;13.07;;
12792;SDS011;6460;42.684;23.260;2023-02-13T15:35:06;17.30;;;12.50;;
12792;SDS011;6460;42.684;23.260;2023-02-13T15:37:46;20.53;;;12.63;;
12792;SDS011;6460;42.684;23.260;2023-02-13T15:40:13;18.17;;;12.67;;
12792;SDS011;6460;42.684;23.260;2023-02-13T15:42:48;19.30;;;13.13;;
12792;SDS011;6460;42.684;23.260;2023-02-13T15:45:16;17.37;;;12.53;;
12792;SDS011;6460;42.684;23.260;2023-02-13T15:47:44;19.73;;;12.90;;
12792;SDS011;6460;42.684;23.260;2023-02-13T15:50:17;20.43;;;13.03;;
12792;SDS011;6460;42.684;23.260;2023-02-13T15:52:47;23.13;;;14.00;;
12792;SDS011;6460;42.684;23.260;2023-02-13T15:55:17;21.60;;;15.20;;
12792;SDS011;6460;42.684;23.260;2023-02-13T15:57:46;26.67;;;16.17;;
12792;SDS011;6460;42.684;23.260;2023-02-13T16:00:14;23.37;;;15.67;;
12792;SDS011;6460;42.684;23.260;2023-02-13T16:02:49;24.93;;;16.10;;
12792;SDS011;6460;42.684;23.260;2023-02-13T16:05:19;23.27;;;16.53;;
12792;SDS011;6460;42.684;23.260;2023-02-13T16:07:48;25.47;;;15.90;;
12792;SDS011;6460;42.684;23.260;2023-02-13T16:10:16;21.13;;;15.27;;